Historyczne dane pomiarowe

Dodano dane terminowe – wersja testowa.

Dane z okresu 1951-2019

Wersja bazy: 1.34 [2019-03-16, lista zmian], aktualizacja planowana na 2019-04-15

Dane meteo z obszaru Polski uzyskane na podstawie danych udostępnionych przez Instytut Meteorologii i Gospodarki Wodnej – Państwowy Instytut Badawczy.

 

Wybierz Datę:    

       

TemperaturaWilgotnośćZachmurzenieWiatrCiśnienieWidzialnośćZjawiska
 Data    tng td wb rh cc ccl cl cm ch dir g1 g2 mslp ppp      
1999-08-09 00:00:00 13.9--- -0.9 7.036wxwx6wx--- 798.1 0.0---wx
1999-08-09 01:00:00 13.6--- -1.7 6.735wxwx6wx--- 798.2----wx
1999-08-09 02:00:00 13.8--- -1.2 6.935wxwx3wx--- 798.3----wx
1999-08-09 03:00:00 14.2--- 2.1 8.244wxwx4wx--- 798.5----wx
1999-08-09 04:00:00 14.6--- 2.9 8.745wxwxwx4wx--- 798.9----wx
1999-08-09 05:00:00 14.6--- 2.7 8.645wxwxwx4wx--- 799.2----wx
1999-08-09 06:00:00 14.8--- 3.2 8.946wxwxwx4wx--- 799.5 0.0---wx
1999-08-09 07:00:00 16.2--- 4.8 10.247wxwx4wx--- 799.7----wx
1999-08-09 08:00:00 17.1--- 5.3 10.846wxwxwx3wx--- 800.0----wx
1999-08-09 09:00:00 16.8--- 4.8 10.545wxwxwx4wx--- 800.2----wx
1999-08-09 10:00:00 16.4--- 6.4 11.051wxwxwx3wx--- 800.5----wx
1999-08-09 11:00:00 16.7--- 10.9 13.268wxwxwx2wx--- 800.4----wx
1999-08-09 12:00:00 17.7--- 14.0 15.479wxwxwx2wx--- 800.5 0.0---wx
1999-08-09 13:00:00 17.8--- 13.7 15.277wxwxwx1wx--- 800.5----wx
1999-08-09 14:00:00 16.6--- 11.6 13.673wxwxwx4wx--- 800.0----wx
1999-08-09 15:00:00 15.6--- 12.1 13.580wxwxwx5wx--- 800.1----wx
1999-08-09 16:00:00 14.4--- 13.1 13.692wxwxwx8wx--- 799.8----wxw1
1999-08-09 17:00:00 13.7--- 13.1 13.497wxwxwx6wx--- 799.6----wxw1
1999-08-09 18:00:00 13.1--- 12.9 13.099wxwx1wx--- 800.5 0.0---wxw1
1999-08-09 19:00:00 12.4--- 12.4 12.4100wxwx2wx--- 800.9----wxw1
1999-08-09 20:00:00 12.6--- 11.9 12.295wxwxwxwx7wx--- 800.7----wx
1999-08-09 21:00:00 13.2--- 11.3 12.188wxwx6wx--- 800.8----wxw1
1999-08-09 22:00:00 13.9--- 10.0 11.778wxwx8wx--- 800.5----wx
1999-08-09 23:00:00 13.6--- 10.2 11.679wxwx3wx--- 800.9----wx

 

Źródłem pochodzenia danych jest Instytut Meteorologii i Gospodarki Wodnej – Państwowy Instytut Badawczy. Dane Instytutu Meteorologii i Gospodarki Wodnej – Państwowego Instytutu Badawczego zostały przetworzone.

Dane źródłowe można odnaleźć na stronie https://dane.imgw.pl